Partington, United Kingdom
Current Conditions -  °F | °C
As of 2:20 PM on Wednesday 28 Jan 2015 (Local Time) from EGCC Reporting Station
Broken Clouds Broken Clouds  
Wind Chill: 26°   Ceiling: 3700
Heat Index: 37°   Visibility: 6mi
Dew Point: 32°   Wind: 24mph
Humidity: 81%   Direction: 280°W
Pressure: 29.47"   Gusts: 38mph
Location:  53.42°N, 2.43°W
Report Text: EGCC 281420Z 28021G33KT 9999 FEW006 SCT030CB BKN037 03/M00 Q0998 TEMPO SHRA
Loading
Personal Weather Stations






























Interactive Weather Map New forecast layout! Learn more

10-Day Weather Forecast

Advertisements
Track Severe Weather on mobile